EJU351 LROP-LFPG
Flight info
| Callsign | EJU351 |
|---|---|
| Flight time | 2h 54m |
| Altitude | 38000 |
| Route | SOKRU DCT OXDOC DCT ENIMA DCT ERUKO DCT GESBA DCT MOPUG DCT DIMLO DCT DETSA DCT SAFFA DCT ELMUR DCT RIPUS L613 HOC DCT MOROK DCT PENDU DCT JAVVU DCT GIVRI DCT TINIL |
| Aircraft | A320/M-SDE3FGHIRWY/LB1 |
Departure
| Time | 2026-05-08 09:53 |
|---|---|
| Airport | Bucharest Henri Coandă International Airport (LROP) |
Arrival
| Time | 2026-05-08 12:47 |
|---|---|
| Airport | Charles de Gaulle International Airport (LFPG) |
| Time | Latitude | Longitude | Altitude | Speed | Heading |
|---|---|---|---|---|---|
| 2026-05-08 09:22 | 44.57022 | 26.08024 | 320 ft | 0 kts | 353° |
| 2026-05-08 09:41 | 44.57010 | 26.08026 | 320 ft | 4 kts | 352° |
| 2026-05-08 09:42 | 44.56984 | 26.08032 | 318 ft | 4 kts | 346° |
| 2026-05-08 09:42 | 44.56958 | 26.08043 | 320 ft | 4 kts | 334° |
| 2026-05-08 09:42 | 44.56938 | 26.08063 | 319 ft | 4 kts | 292° |
| 2026-05-08 09:42 | 44.56935 | 26.08081 | 317 ft | 1 kts | 264° |
| 2026-05-08 09:43 | 44.56936 | 26.08083 | 317 ft | 0 kts | 264° |
| 2026-05-08 09:45 | 44.56934 | 26.08061 | 319 ft | 2 kts | 264° |
| 2026-05-08 09:45 | 44.56932 | 26.08043 | 319 ft | 1 kts | 262° |
| 2026-05-08 09:46 | 44.56931 | 26.08033 | 320 ft | 1 kts | 262° |
| 2026-05-08 09:46 | 44.56931 | 26.08027 | 320 ft | 2 kts | 262° |
| 2026-05-08 09:46 | 44.56923 | 26.08003 | 320 ft | 3 kts | 237° |
| 2026-05-08 09:46 | 44.56912 | 26.07989 | 320 ft | 1 kts | 217° |
| 2026-05-08 09:47 | 44.56906 | 26.07986 | 320 ft | 1 kts | 204° |
| 2026-05-08 09:47 | 44.56884 | 26.07983 | 320 ft | 4 kts | 182° |
| 2026-05-08 09:47 | 44.56863 | 26.07985 | 320 ft | 3 kts | 176° |
| 2026-05-08 09:47 | 44.56849 | 26.07986 | 320 ft | 1 kts | 176° |
| 2026-05-08 09:48 | 44.56844 | 26.07987 | 320 ft | 0 kts | 176° |
| 2026-05-08 09:48 | 44.56834 | 26.07988 | 320 ft | 3 kts | 176° |
| 2026-05-08 09:48 | 44.56811 | 26.07990 | 320 ft | 3 kts | 175° |
| 2026-05-08 09:49 | 44.56796 | 26.07992 | 320 ft | 2 kts | 175° |
| 2026-05-08 09:49 | 44.56754 | 26.07966 | 319 ft | 10 kts | 233° |
| 2026-05-08 09:49 | 44.56733 | 26.07883 | 318 ft | 8 kts | 255° |
| 2026-05-08 09:49 | 44.56719 | 26.07815 | 320 ft | 6 kts | 255° |
| 2026-05-08 09:50 | 44.56709 | 26.07762 | 320 ft | 5 kts | 255° |
| 2026-05-08 09:50 | 44.56702 | 26.07723 | 319 ft | 4 kts | 254° |
| 2026-05-08 09:50 | 44.56691 | 26.07694 | 320 ft | 3 kts | 234° |
| 2026-05-08 09:50 | 44.56676 | 26.07677 | 320 ft | 4 kts | 210° |
| 2026-05-08 09:51 | 44.56614 | 26.07670 | 318 ft | 9 kts | 174° |
| 2026-05-08 09:51 | 44.56555 | 26.07679 | 319 ft | 8 kts | 174° |
| 2026-05-08 09:51 | 44.56498 | 26.07689 | 319 ft | 8 kts | 170° |
| 2026-05-08 09:51 | 44.56472 | 26.07738 | 318 ft | 5 kts | 93° |
| 2026-05-08 09:52 | 44.56474 | 26.07781 | 318 ft | 4 kts | 86° |
| 2026-05-08 09:52 | 44.56486 | 26.07972 | 321 ft | 52 kts | 84° |
| 2026-05-08 09:52 | 44.56551 | 26.08799 | 320 ft | 116 kts | 83° |
| 2026-05-08 09:52 | 44.56654 | 26.10174 | 323 ft | 165 kts | 84° |
| 2026-05-08 09:53 | 44.56801 | 26.11810 | 857 ft | 165 kts | 82° |
| 2026-05-08 09:53 | 44.56957 | 26.13407 | 1479 ft | 170 kts | 85° |
| 2026-05-08 09:53 | 44.57088 | 26.15144 | 1800 ft | 192 kts | 86° |
| 2026-05-08 09:53 | 44.57202 | 26.17112 | 2147 ft | 212 kts | 88° |
| 2026-05-08 09:54 | 44.57329 | 26.19287 | 2511 ft | 235 kts | 84° |
| 2026-05-08 09:54 | 44.57934 | 26.21493 | 2951 ft | 257 kts | 50° |
| 2026-05-08 09:54 | 44.59463 | 26.22845 | 3442 ft | 270 kts | 11° |
| 2026-05-08 09:54 | 44.61305 | 26.22606 | 4321 ft | 269 kts | 334° |
| 2026-05-08 09:55 | 44.62775 | 26.21028 | 5184 ft | 268 kts | 308° |
| 2026-05-08 09:55 | 44.63979 | 26.19014 | 6032 ft | 273 kts | 317° |
| 2026-05-08 09:55 | 44.65673 | 26.17771 | 6836 ft | 280 kts | 342° |
| 2026-05-08 09:55 | 44.67605 | 26.17288 | 7660 ft | 285 kts | 353° |
| 2026-05-08 09:56 | 44.69595 | 26.17122 | 8454 ft | 288 kts | 356° |
| 2026-05-08 09:56 | 44.71615 | 26.17034 | 9293 ft | 292 kts | 356° |
| 2026-05-08 09:56 | 44.73656 | 26.16901 | 10091 ft | 295 kts | 352° |
| 2026-05-08 09:56 | 44.75641 | 26.16195 | 10818 ft | 295 kts | 333° |
| 2026-05-08 09:57 | 44.78731 | 26.12280 | 11572 ft | 322 kts | 299° |
| 2026-05-08 09:57 | 44.79901 | 26.09517 | 12029 ft | 333 kts | 299° |
| 2026-05-08 09:57 | 44.81109 | 26.06709 | 12703 ft | 337 kts | 300° |
| 2026-05-08 09:58 | 44.82341 | 26.03886 | 13437 ft | 340 kts | 300° |
| 2026-05-08 09:58 | 44.83167 | 26.02005 | 13900 ft | 341 kts | 300° |
| 2026-05-08 09:58 | 44.84424 | 25.99151 | 14511 ft | 344 kts | 300° |
| 2026-05-08 09:58 | 44.86086 | 25.95311 | 15292 ft | 349 kts | 296° |
| 2026-05-08 09:59 | 44.87007 | 25.92139 | 15860 ft | 352 kts | 286° |
| 2026-05-08 09:59 | 44.87478 | 25.89897 | 16258 ft | 354 kts | 285° |
| 2026-05-08 09:59 | 44.88405 | 25.85468 | 17042 ft | 358 kts | 285° |
| 2026-05-08 09:59 | 44.88882 | 25.83192 | 17437 ft | 360 kts | 285° |
| 2026-05-08 10:00 | 44.89597 | 25.79792 | 18020 ft | 363 kts | 285° |
| 2026-05-08 10:00 | 44.90317 | 25.76361 | 18561 ft | 366 kts | 285° |
| 2026-05-08 10:00 | 44.91040 | 25.72903 | 19075 ft | 369 kts | 285° |
| 2026-05-08 10:00 | 44.91765 | 25.69422 | 19590 ft | 371 kts | 285° |
| 2026-05-08 10:01 | 44.92495 | 25.65922 | 20109 ft | 373 kts | 285° |
| 2026-05-08 10:01 | 44.93227 | 25.62400 | 20609 ft | 375 kts | 285° |
| 2026-05-08 10:01 | 44.93962 | 25.58857 | 21115 ft | 377 kts | 285° |
| 2026-05-08 10:01 | 44.94696 | 25.55295 | 21608 ft | 379 kts | 285° |
| 2026-05-08 10:02 | 44.95436 | 25.51714 | 22101 ft | 381 kts | 285° |
| 2026-05-08 10:02 | 44.96181 | 25.48113 | 22601 ft | 383 kts | 285° |
| 2026-05-08 10:02 | 44.96929 | 25.44492 | 23072 ft | 385 kts | 285° |
| 2026-05-08 10:02 | 44.97678 | 25.40852 | 23530 ft | 387 kts | 285° |
| 2026-05-08 10:03 | 44.98429 | 25.37198 | 23918 ft | 389 kts | 285° |
| 2026-05-08 10:03 | 44.99184 | 25.33518 | 24298 ft | 391 kts | 285° |
| 2026-05-08 10:03 | 45.00008 | 25.29844 | 24673 ft | 393 kts | 287° |
| 2026-05-08 10:03 | 45.00924 | 25.26192 | 25055 ft | 395 kts | 288° |
| 2026-05-08 10:04 | 45.01897 | 25.22551 | 25447 ft | 397 kts | 289° |
| 2026-05-08 10:04 | 45.02877 | 25.18900 | 25820 ft | 398 kts | 287° |
| 2026-05-08 10:04 | 45.03631 | 25.15138 | 26181 ft | 398 kts | 283° |
| 2026-05-08 10:04 | 45.04327 | 25.11338 | 26527 ft | 400 kts | 283° |
| 2026-05-08 10:05 | 45.05000 | 25.07511 | 26878 ft | 402 kts | 282° |
| 2026-05-08 10:05 | 45.05660 | 25.03660 | 27214 ft | 404 kts | 282° |
| 2026-05-08 10:05 | 45.06316 | 24.99791 | 27571 ft | 405 kts | 282° |
| 2026-05-08 10:05 | 45.06976 | 24.95903 | 27909 ft | 407 kts | 282° |
| 2026-05-08 10:06 | 45.07647 | 24.91998 | 28241 ft | 409 kts | 283° |
| 2026-05-08 10:06 | 45.08533 | 24.88158 | 28590 ft | 413 kts | 290° |
| 2026-05-08 10:06 | 45.09605 | 24.84384 | 28942 ft | 414 kts | 290° |
| 2026-05-08 10:06 | 45.10676 | 24.80600 | 29253 ft | 416 kts | 290° |
| 2026-05-08 10:07 | 45.11755 | 24.76790 | 29559 ft | 418 kts | 290° |
| 2026-05-08 10:07 | 45.12836 | 24.72963 | 29861 ft | 419 kts | 289° |
| 2026-05-08 10:07 | 45.13918 | 24.69117 | 30142 ft | 421 kts | 289° |
| 2026-05-08 10:07 | 45.15002 | 24.65252 | 30382 ft | 423 kts | 289° |
| 2026-05-08 10:08 | 45.16087 | 24.61370 | 30625 ft | 424 kts | 289° |
| 2026-05-08 10:08 | 45.17173 | 24.57474 | 30874 ft | 426 kts | 289° |
| 2026-05-08 10:08 | 45.18246 | 24.53621 | 31166 ft | 426 kts | 288° |
| 2026-05-08 10:08 | 45.19330 | 24.49725 | 31505 ft | 424 kts | 288° |
| 2026-05-08 10:09 | 45.20410 | 24.45839 | 31839 ft | 423 kts | 288° |
| 2026-05-08 10:09 | 45.21489 | 24.41963 | 32189 ft | 422 kts | 288° |
| 2026-05-08 10:09 | 45.22567 | 24.38096 | 32530 ft | 421 kts | 288° |
| 2026-05-08 10:09 | 45.23638 | 24.34236 | 32872 ft | 420 kts | 288° |
| 2026-05-08 10:10 | 45.24701 | 24.30392 | 33198 ft | 419 kts | 288° |
| 2026-05-08 10:10 | 45.25764 | 24.26538 | 33517 ft | 418 kts | 288° |
| 2026-05-08 10:10 | 45.26818 | 24.22707 | 33857 ft | 417 kts | 288° |
| 2026-05-08 10:10 | 45.27872 | 24.18875 | 34178 ft | 416 kts | 288° |
| 2026-05-08 10:11 | 45.28924 | 24.15053 | 34467 ft | 415 kts | 288° |
| 2026-05-08 10:11 | 45.29974 | 24.11238 | 34739 ft | 414 kts | 288° |
| 2026-05-08 10:11 | 45.31019 | 24.07431 | 34987 ft | 413 kts | 288° |
| 2026-05-08 10:11 | 45.32057 | 24.03633 | 35252 ft | 411 kts | 288° |
| 2026-05-08 10:12 | 45.33090 | 23.99846 | 35498 ft | 410 kts | 288° |
| 2026-05-08 10:12 | 45.34116 | 23.96067 | 35709 ft | 409 kts | 288° |
| 2026-05-08 10:12 | 45.35141 | 23.92291 | 35893 ft | 409 kts | 288° |
| 2026-05-08 10:12 | 45.36165 | 23.88516 | 36037 ft | 409 kts | 287° |
| 2026-05-08 10:13 | 45.38194 | 23.81022 | 36071 ft | 404 kts | 287° |
| 2026-05-08 10:13 | 45.40209 | 23.73561 | 36069 ft | 404 kts | 287° |
| 2026-05-08 10:14 | 45.42221 | 23.66098 | 36070 ft | 404 kts | 287° |
| 2026-05-08 10:14 | 45.44227 | 23.58635 | 36052 ft | 404 kts | 287° |
| 2026-05-08 10:15 | 45.46234 | 23.51164 | 36069 ft | 404 kts | 287° |
| 2026-05-08 10:15 | 45.48240 | 23.43691 | 36066 ft | 404 kts | 287° |
| 2026-05-08 10:16 | 45.50231 | 23.36202 | 36070 ft | 404 kts | 287° |
| 2026-05-08 10:16 | 45.52213 | 23.28708 | 36068 ft | 404 kts | 287° |
| 2026-05-08 10:17 | 45.54188 | 23.21205 | 36067 ft | 405 kts | 287° |
| 2026-05-08 10:17 | 45.56167 | 23.13690 | 36067 ft | 405 kts | 287° |
| 2026-05-08 10:18 | 45.57158 | 23.09923 | 36222 ft | 406 kts | 287° |
| 2026-05-08 10:18 | 45.58150 | 23.06161 | 36458 ft | 404 kts | 287° |
| 2026-05-08 10:18 | 45.59137 | 23.02406 | 36693 ft | 404 kts | 287° |
| 2026-05-08 10:18 | 45.60119 | 22.98656 | 36913 ft | 403 kts | 287° |
| 2026-05-08 10:19 | 45.61097 | 22.94911 | 37121 ft | 402 kts | 287° |
| 2026-05-08 10:19 | 45.62071 | 22.91169 | 37327 ft | 402 kts | 287° |
| 2026-05-08 10:19 | 45.63040 | 22.87429 | 37522 ft | 401 kts | 287° |
| 2026-05-08 10:20 | 45.64977 | 22.79961 | 37898 ft | 400 kts | 286° |
| 2026-05-08 10:20 | 45.65945 | 22.76234 | 38043 ft | 400 kts | 286° |
| 2026-05-08 10:20 | 45.66909 | 22.72507 | 38061 ft | 400 kts | 286° |
| 2026-05-08 10:21 | 45.68834 | 22.65059 | 38087 ft | 399 kts | 286° |
| 2026-05-08 10:21 | 45.70757 | 22.57611 | 38075 ft | 399 kts | 286° |
| 2026-05-08 10:22 | 45.72667 | 22.50148 | 38085 ft | 402 kts | 286° |
| 2026-05-08 10:22 | 45.74601 | 22.42554 | 38076 ft | 410 kts | 286° |
| 2026-05-08 10:23 | 45.76559 | 22.34843 | 38073 ft | 413 kts | 286° |
| 2026-05-08 10:23 | 45.78524 | 22.27119 | 38073 ft | 413 kts | 286° |
| 2026-05-08 10:24 | 45.80485 | 22.19390 | 38072 ft | 413 kts | 286° |
| 2026-05-08 10:24 | 45.82422 | 22.11696 | 38088 ft | 413 kts | 286° |
| 2026-05-08 10:25 | 45.84499 | 22.03992 | 38097 ft | 415 kts | 289° |
| 2026-05-08 10:25 | 45.86873 | 21.96421 | 38087 ft | 417 kts | 290° |
| 2026-05-08 10:26 | 45.89288 | 21.88845 | 38086 ft | 417 kts | 290° |
| 2026-05-08 10:26 | 45.91637 | 21.81221 | 38103 ft | 417 kts | 289° |
| 2026-05-08 10:27 | 45.93571 | 21.73402 | 38089 ft | 415 kts | 284° |
| 2026-05-08 10:27 | 45.95352 | 21.65503 | 38087 ft | 416 kts | 284° |
| 2026-05-08 10:28 | 45.97144 | 21.57597 | 38088 ft | 416 kts | 284° |
| 2026-05-08 10:28 | 45.98932 | 21.49679 | 38096 ft | 416 kts | 284° |
| 2026-05-08 10:29 | 46.00715 | 21.41751 | 38115 ft | 417 kts | 284° |
| 2026-05-08 10:29 | 46.02495 | 21.33825 | 38111 ft | 417 kts | 284° |
| 2026-05-08 10:30 | 46.04269 | 21.25884 | 38101 ft | 417 kts | 284° |
| 2026-05-08 10:30 | 46.06031 | 21.17936 | 38099 ft | 417 kts | 284° |
| 2026-05-08 10:31 | 46.07790 | 21.09974 | 38102 ft | 417 kts | 284° |
| 2026-05-08 10:31 | 46.09543 | 21.02016 | 38106 ft | 417 kts | 284° |
| 2026-05-08 10:32 | 46.11293 | 20.94054 | 38101 ft | 417 kts | 284° |
| 2026-05-08 10:32 | 46.13036 | 20.86087 | 38098 ft | 417 kts | 284° |
| 2026-05-08 10:33 | 46.14775 | 20.78116 | 38095 ft | 417 kts | 284° |
| 2026-05-08 10:33 | 46.16460 | 20.70135 | 38112 ft | 415 kts | 279° |
| 2026-05-08 10:34 | 46.17595 | 20.62045 | 38101 ft | 414 kts | 278° |
| 2026-05-08 10:34 | 46.18732 | 20.53894 | 38095 ft | 414 kts | 278° |
| 2026-05-08 10:35 | 46.19872 | 20.45740 | 38093 ft | 414 kts | 278° |
| 2026-05-08 10:35 | 46.21005 | 20.37581 | 38090 ft | 414 kts | 278° |
| 2026-05-08 10:36 | 46.22131 | 20.29426 | 38102 ft | 415 kts | 278° |
| 2026-05-08 10:36 | 46.23250 | 20.21257 | 38094 ft | 415 kts | 278° |
| 2026-05-08 10:37 | 46.24362 | 20.13082 | 38097 ft | 415 kts | 278° |
| 2026-05-08 10:37 | 46.25476 | 20.04904 | 38089 ft | 415 kts | 278° |
| 2026-05-08 10:38 | 46.26583 | 19.96722 | 38084 ft | 415 kts | 278° |
| 2026-05-08 10:38 | 46.27680 | 19.88537 | 38093 ft | 415 kts | 278° |
| 2026-05-08 10:39 | 46.28767 | 19.80347 | 38093 ft | 415 kts | 278° |
| 2026-05-08 10:39 | 46.29849 | 19.72154 | 38084 ft | 415 kts | 278° |
| 2026-05-08 10:40 | 46.30920 | 19.63966 | 38096 ft | 415 kts | 277° |
| 2026-05-08 10:40 | 46.31992 | 19.55767 | 38112 ft | 415 kts | 278° |
| 2026-05-08 10:41 | 46.33063 | 19.47557 | 38092 ft | 415 kts | 278° |
| 2026-05-08 10:41 | 46.34130 | 19.39354 | 38083 ft | 415 kts | 277° |
| 2026-05-08 10:42 | 46.35182 | 19.31140 | 38091 ft | 415 kts | 277° |
| 2026-05-08 10:42 | 46.36227 | 19.22925 | 38086 ft | 415 kts | 277° |
| 2026-05-08 10:43 | 46.37099 | 19.16086 | 38108 ft | 415 kts | 277° |
| 2026-05-08 10:43 | 46.38143 | 19.07858 | 38094 ft | 415 kts | 277° |
| 2026-05-08 10:44 | 46.39343 | 18.98295 | 38103 ft | 415 kts | 277° |
| 2026-05-08 10:44 | 46.40205 | 18.91396 | 38099 ft | 415 kts | 277° |
| 2026-05-08 10:45 | 46.41223 | 18.83159 | 38090 ft | 415 kts | 277° |
| 2026-05-08 10:45 | 46.42240 | 18.74929 | 38113 ft | 415 kts | 277° |
| 2026-05-08 10:46 | 46.43242 | 18.66747 | 38107 ft | 415 kts | 277° |
| 2026-05-08 10:46 | 46.44243 | 18.58512 | 38105 ft | 415 kts | 277° |
| 2026-05-08 10:47 | 46.45239 | 18.50274 | 38096 ft | 415 kts | 277° |
| 2026-05-08 10:47 | 46.46233 | 18.42036 | 38095 ft | 415 kts | 277° |
| 2026-05-08 10:48 | 46.47223 | 18.33798 | 38108 ft | 414 kts | 277° |
| 2026-05-08 10:48 | 46.48199 | 18.25559 | 38105 ft | 414 kts | 277° |
| 2026-05-08 10:49 | 46.49175 | 18.17329 | 38102 ft | 414 kts | 277° |
| 2026-05-08 10:49 | 46.50140 | 18.09087 | 38104 ft | 414 kts | 277° |
| 2026-05-08 10:50 | 46.51099 | 18.00843 | 38124 ft | 414 kts | 277° |
| 2026-05-08 10:50 | 46.52053 | 17.92596 | 38115 ft | 414 kts | 277° |
| 2026-05-08 10:51 | 46.52997 | 17.84350 | 38109 ft | 414 kts | 277° |
| 2026-05-08 10:51 | 46.53936 | 17.76106 | 38107 ft | 414 kts | 277° |
| 2026-05-08 10:52 | 46.54869 | 17.67907 | 38108 ft | 414 kts | 276° |
| 2026-05-08 10:52 | 46.55803 | 17.59605 | 38115 ft | 414 kts | 276° |
| 2026-05-08 10:53 | 46.56728 | 17.51364 | 38112 ft | 414 kts | 276° |
| 2026-05-08 10:53 | 46.57651 | 17.43112 | 38109 ft | 414 kts | 276° |
| 2026-05-08 10:54 | 46.58564 | 17.34858 | 38105 ft | 414 kts | 276° |
| 2026-05-08 10:54 | 46.59472 | 17.26600 | 38104 ft | 414 kts | 276° |
| 2026-05-08 10:55 | 46.60371 | 17.18339 | 38118 ft | 414 kts | 276° |
| 2026-05-08 10:55 | 46.61259 | 17.10074 | 38110 ft | 414 kts | 276° |
| 2026-05-08 10:56 | 46.62144 | 17.01806 | 38108 ft | 414 kts | 276° |
| 2026-05-08 10:56 | 46.63028 | 16.93537 | 38107 ft | 414 kts | 276° |
| 2026-05-08 10:57 | 46.63905 | 16.85267 | 38115 ft | 414 kts | 276° |
| 2026-05-08 10:57 | 46.65210 | 16.72853 | 38116 ft | 414 kts | 276° |
| 2026-05-08 10:58 | 46.66063 | 16.64622 | 38114 ft | 414 kts | 276° |
| 2026-05-08 10:58 | 46.66919 | 16.56341 | 38116 ft | 414 kts | 276° |
| 2026-05-08 10:59 | 46.67770 | 16.48038 | 38117 ft | 414 kts | 275° |
| 2026-05-08 10:59 | 46.68541 | 16.39741 | 38132 ft | 413 kts | 273° |
| 2026-05-08 11:00 | 46.68975 | 16.31400 | 38122 ft | 413 kts | 270° |
| 2026-05-08 11:00 | 46.69272 | 16.23047 | 38121 ft | 413 kts | 270° |
| 2026-05-08 11:01 | 46.69601 | 16.14691 | 38119 ft | 413 kts | 271° |
| 2026-05-08 11:01 | 46.69970 | 16.06334 | 38118 ft | 413 kts | 271° |
| 2026-05-08 11:02 | 46.70528 | 15.93792 | 38117 ft | 414 kts | 271° |
| 2026-05-08 11:03 | 46.70880 | 15.85428 | 38118 ft | 414 kts | 271° |
| 2026-05-08 11:03 | 46.71229 | 15.77062 | 38122 ft | 414 kts | 271° |
| 2026-05-08 11:04 | 46.71569 | 15.68705 | 38100 ft | 413 kts | 270° |
| 2026-05-08 11:04 | 46.71901 | 15.60330 | 38130 ft | 413 kts | 270° |
| 2026-05-08 11:05 | 46.72227 | 15.52014 | 38118 ft | 414 kts | 270° |
| 2026-05-08 11:05 | 46.72545 | 15.43633 | 38106 ft | 414 kts | 270° |
| 2026-05-08 11:06 | 46.72865 | 15.35249 | 38104 ft | 414 kts | 270° |
| 2026-05-08 11:06 | 46.73176 | 15.26863 | 38104 ft | 414 kts | 270° |
| 2026-05-08 11:07 | 46.73479 | 15.18482 | 38116 ft | 414 kts | 270° |
| 2026-05-08 11:07 | 46.73778 | 15.10088 | 38110 ft | 415 kts | 270° |
| 2026-05-08 11:08 | 46.74075 | 15.01684 | 38109 ft | 415 kts | 270° |
| 2026-05-08 11:08 | 46.74368 | 14.93273 | 38108 ft | 416 kts | 270° |
| 2026-05-08 11:09 | 46.74650 | 14.84857 | 38108 ft | 415 kts | 270° |
| 2026-05-08 11:09 | 46.74923 | 14.76452 | 38125 ft | 415 kts | 270° |
| 2026-05-08 11:10 | 46.75192 | 14.68031 | 38112 ft | 416 kts | 270° |
| 2026-05-08 11:10 | 46.75458 | 14.59604 | 38109 ft | 416 kts | 270° |
| 2026-05-08 11:11 | 46.75712 | 14.51171 | 38107 ft | 416 kts | 270° |
| 2026-05-08 11:11 | 46.75955 | 14.42795 | 38103 ft | 416 kts | 269° |
| 2026-05-08 11:12 | 46.76196 | 14.34355 | 38117 ft | 417 kts | 269° |
| 2026-05-08 11:12 | 46.76442 | 14.25915 | 38102 ft | 417 kts | 269° |
| 2026-05-08 11:13 | 46.76683 | 14.17454 | 38106 ft | 418 kts | 269° |
| 2026-05-08 11:13 | 46.76912 | 14.08985 | 38098 ft | 418 kts | 269° |
| 2026-05-08 11:14 | 46.77122 | 14.00511 | 38100 ft | 418 kts | 269° |
| 2026-05-08 11:14 | 46.77334 | 13.92035 | 38109 ft | 418 kts | 269° |
| 2026-05-08 11:15 | 46.77549 | 13.83546 | 38106 ft | 419 kts | 269° |
| 2026-05-08 11:15 | 46.77755 | 13.75043 | 38091 ft | 420 kts | 269° |
| 2026-05-08 11:16 | 46.77948 | 13.66536 | 38083 ft | 420 kts | 269° |
| 2026-05-08 11:16 | 46.78135 | 13.58009 | 38063 ft | 420 kts | 269° |
| 2026-05-08 11:17 | 46.78321 | 13.49479 | 38088 ft | 421 kts | 269° |
| 2026-05-08 11:17 | 46.78498 | 13.40943 | 38079 ft | 421 kts | 269° |
| 2026-05-08 11:18 | 46.78670 | 13.32386 | 38079 ft | 422 kts | 269° |
| 2026-05-08 11:18 | 46.78834 | 13.23826 | 38083 ft | 423 kts | 269° |
| 2026-05-08 11:19 | 46.78998 | 13.15276 | 38089 ft | 421 kts | 269° |
| 2026-05-08 11:19 | 46.79149 | 13.06752 | 38097 ft | 420 kts | 268° |
| 2026-05-08 11:20 | 46.79290 | 12.98246 | 38077 ft | 419 kts | 269° |
| 2026-05-08 11:20 | 46.79426 | 12.89735 | 38087 ft | 420 kts | 269° |
| 2026-05-08 11:21 | 46.79559 | 12.81228 | 38086 ft | 419 kts | 269° |
| 2026-05-08 11:21 | 46.79686 | 12.72725 | 38088 ft | 419 kts | 268° |
| 2026-05-08 11:22 | 46.79803 | 12.64217 | 38106 ft | 419 kts | 269° |
| 2026-05-08 11:22 | 46.79919 | 12.55704 | 38106 ft | 419 kts | 268° |
| 2026-05-08 11:23 | 46.80033 | 12.47194 | 38117 ft | 419 kts | 268° |
| 2026-05-08 11:23 | 46.80132 | 12.38679 | 38121 ft | 419 kts | 268° |
| 2026-05-08 11:24 | 46.80217 | 12.30168 | 38128 ft | 419 kts | 268° |
| 2026-05-08 11:24 | 46.80173 | 12.21667 | 38136 ft | 419 kts | 266° |
| 2026-05-08 11:25 | 46.79904 | 12.13183 | 38068 ft | 418 kts | 265° |
| 2026-05-08 11:25 | 46.79595 | 12.04708 | 38066 ft | 418 kts | 265° |
| 2026-05-08 11:26 | 46.79335 | 11.96224 | 38068 ft | 419 kts | 265° |
| 2026-05-08 11:26 | 46.79096 | 11.87792 | 38065 ft | 419 kts | 265° |
| 2026-05-08 11:27 | 46.78844 | 11.79308 | 38062 ft | 419 kts | 265° |
| 2026-05-08 11:27 | 46.78579 | 11.70818 | 38061 ft | 419 kts | 265° |
| 2026-05-08 11:28 | 46.78352 | 11.63711 | 38044 ft | 419 kts | 265° |
| 2026-05-08 11:28 | 46.78033 | 11.53849 | 38045 ft | 419 kts | 265° |
| 2026-05-08 11:29 | 46.77754 | 11.45344 | 38078 ft | 420 kts | 265° |
| 2026-05-08 11:29 | 46.77454 | 11.36838 | 38076 ft | 420 kts | 265° |
| 2026-05-08 11:30 | 46.77197 | 11.29718 | 38069 ft | 420 kts | 265° |
| 2026-05-08 11:30 | 46.76894 | 11.21219 | 38092 ft | 420 kts | 265° |
| 2026-05-08 11:31 | 46.76591 | 11.12720 | 38092 ft | 420 kts | 265° |
| 2026-05-08 11:31 | 46.76281 | 11.04279 | 38099 ft | 420 kts | 265° |
| 2026-05-08 11:32 | 46.75961 | 10.95766 | 38116 ft | 421 kts | 265° |
| 2026-05-08 11:32 | 46.75631 | 10.87253 | 38116 ft | 420 kts | 265° |
| 2026-05-08 11:33 | 46.75287 | 10.78749 | 38114 ft | 421 kts | 265° |
| 2026-05-08 11:33 | 46.74942 | 10.70244 | 38113 ft | 420 kts | 265° |
| 2026-05-08 11:34 | 46.74594 | 10.61747 | 38107 ft | 420 kts | 264° |
| 2026-05-08 11:34 | 46.74239 | 10.53237 | 38103 ft | 420 kts | 264° |
| 2026-05-08 11:35 | 46.73911 | 10.44721 | 38104 ft | 421 kts | 268° |
| 2026-05-08 11:35 | 46.74901 | 10.36302 | 38099 ft | 427 kts | 287° |
| 2026-05-08 11:36 | 46.77194 | 10.28281 | 38098 ft | 429 kts | 289° |
| 2026-05-08 11:36 | 46.79504 | 10.20270 | 38113 ft | 429 kts | 289° |
| 2026-05-08 11:37 | 46.81807 | 10.12234 | 38105 ft | 429 kts | 289° |
| 2026-05-08 11:37 | 46.84108 | 10.04182 | 38101 ft | 429 kts | 289° |
| 2026-05-08 11:38 | 46.86406 | 9.96130 | 38098 ft | 430 kts | 289° |
| 2026-05-08 11:38 | 46.88697 | 9.88059 | 38093 ft | 430 kts | 289° |
| 2026-05-08 11:39 | 46.90977 | 9.79986 | 38088 ft | 430 kts | 289° |
| 2026-05-08 11:39 | 46.93258 | 9.71892 | 38091 ft | 430 kts | 289° |
| 2026-05-08 11:40 | 46.95515 | 9.63841 | 38075 ft | 431 kts | 289° |
| 2026-05-08 11:40 | 46.97787 | 9.55728 | 38066 ft | 431 kts | 289° |
| 2026-05-08 11:41 | 47.00056 | 9.47612 | 38078 ft | 431 kts | 289° |
| 2026-05-08 11:41 | 47.02314 | 9.39477 | 38077 ft | 431 kts | 289° |
| 2026-05-08 11:42 | 47.04562 | 9.31333 | 38067 ft | 431 kts | 289° |
| 2026-05-08 11:42 | 47.06820 | 9.23178 | 38079 ft | 431 kts | 289° |
| 2026-05-08 11:43 | 47.09059 | 9.15031 | 38065 ft | 430 kts | 289° |
| 2026-05-08 11:43 | 47.11292 | 9.06871 | 38084 ft | 431 kts | 289° |
| 2026-05-08 11:44 | 47.13529 | 8.98695 | 38071 ft | 431 kts | 289° |
| 2026-05-08 11:44 | 47.15760 | 8.90514 | 38074 ft | 431 kts | 289° |
| 2026-05-08 11:45 | 47.17910 | 8.82290 | 38073 ft | 431 kts | 288° |
| 2026-05-08 11:45 | 47.19980 | 8.74019 | 38086 ft | 431 kts | 287° |
| 2026-05-08 11:46 | 47.22054 | 8.65743 | 38081 ft | 431 kts | 288° |
| 2026-05-08 11:46 | 47.24128 | 8.57529 | 38081 ft | 431 kts | 288° |
| 2026-05-08 11:47 | 47.26218 | 8.49253 | 38083 ft | 432 kts | 288° |
| 2026-05-08 11:47 | 47.28308 | 8.40968 | 38084 ft | 431 kts | 288° |
| 2026-05-08 11:48 | 47.30405 | 8.32623 | 38091 ft | 431 kts | 288° |
| 2026-05-08 11:48 | 47.32480 | 8.24328 | 38084 ft | 432 kts | 288° |
| 2026-05-08 11:49 | 47.34544 | 8.16013 | 38083 ft | 432 kts | 288° |
| 2026-05-08 11:49 | 47.36601 | 8.07687 | 38080 ft | 432 kts | 287° |
| 2026-05-08 11:50 | 47.38651 | 7.99353 | 38071 ft | 432 kts | 287° |
| 2026-05-08 11:50 | 47.40683 | 7.91066 | 38072 ft | 432 kts | 287° |
| 2026-05-08 11:51 | 47.42740 | 7.82664 | 38072 ft | 432 kts | 287° |
| 2026-05-08 11:51 | 47.44761 | 7.74361 | 38071 ft | 432 kts | 287° |
| 2026-05-08 11:52 | 47.46290 | 7.65772 | 38067 ft | 428 kts | 273° |
| 2026-05-08 11:52 | 47.46040 | 7.57110 | 38066 ft | 425 kts | 263° |
| 2026-05-08 11:53 | 47.45459 | 7.48404 | 38069 ft | 426 kts | 263° |
| 2026-05-08 11:53 | 47.44887 | 7.39679 | 38064 ft | 426 kts | 263° |
| 2026-05-08 11:54 | 47.44305 | 7.30970 | 38065 ft | 427 kts | 263° |
| 2026-05-08 11:54 | 47.43709 | 7.22249 | 38066 ft | 427 kts | 263° |
| 2026-05-08 11:55 | 47.43106 | 7.13528 | 38069 ft | 427 kts | 263° |
| 2026-05-08 11:55 | 47.42489 | 7.04808 | 38074 ft | 427 kts | 263° |
| 2026-05-08 11:56 | 47.41872 | 6.96085 | 38070 ft | 427 kts | 263° |
| 2026-05-08 11:56 | 47.41251 | 6.87362 | 38071 ft | 427 kts | 263° |
| 2026-05-08 11:57 | 47.40625 | 6.78640 | 38072 ft | 427 kts | 263° |
| 2026-05-08 11:57 | 47.39987 | 6.69918 | 38072 ft | 427 kts | 263° |
| 2026-05-08 11:58 | 47.39339 | 6.61210 | 38074 ft | 427 kts | 263° |
| 2026-05-08 11:58 | 47.38689 | 6.52495 | 38070 ft | 427 kts | 263° |
| 2026-05-08 11:59 | 47.37703 | 6.39431 | 38066 ft | 427 kts | 263° |
| 2026-05-08 11:59 | 47.37037 | 6.30727 | 38066 ft | 427 kts | 263° |
| 2026-05-08 12:00 | 47.36365 | 6.22027 | 38073 ft | 427 kts | 263° |
| 2026-05-08 12:00 | 47.35692 | 6.13344 | 38074 ft | 426 kts | 263° |
| 2026-05-08 12:01 | 47.35006 | 6.04662 | 38069 ft | 426 kts | 263° |
| 2026-05-08 12:01 | 47.34305 | 5.95991 | 38066 ft | 426 kts | 263° |
| 2026-05-08 12:02 | 47.33571 | 5.87330 | 38063 ft | 426 kts | 262° |
| 2026-05-08 12:02 | 47.32838 | 5.78672 | 38065 ft | 426 kts | 263° |
| 2026-05-08 12:03 | 47.32137 | 5.70011 | 38065 ft | 425 kts | 263° |
| 2026-05-08 12:03 | 47.31448 | 5.61355 | 38069 ft | 425 kts | 263° |
| 2026-05-08 12:04 | 47.30744 | 5.52721 | 37984 ft | 427 kts | 263° |
| 2026-05-08 12:04 | 47.30382 | 5.48364 | 37753 ft | 431 kts | 263° |
| 2026-05-08 12:04 | 47.30212 | 5.43965 | 37477 ft | 430 kts | 273° |
| 2026-05-08 12:05 | 47.30675 | 5.39678 | 37211 ft | 429 kts | 285° |
| 2026-05-08 12:05 | 47.31783 | 5.35615 | 36954 ft | 428 kts | 297° |
| 2026-05-08 12:05 | 47.33482 | 5.32023 | 36691 ft | 428 kts | 310° |
| 2026-05-08 12:05 | 47.35678 | 5.29070 | 36333 ft | 430 kts | 321° |
| 2026-05-08 12:06 | 47.38262 | 5.26762 | 35613 ft | 434 kts | 328° |
| 2026-05-08 12:06 | 47.40893 | 5.24634 | 35099 ft | 431 kts | 328° |
| 2026-05-08 12:06 | 47.43512 | 5.22513 | 34538 ft | 428 kts | 328° |
| 2026-05-08 12:06 | 47.46117 | 5.20394 | 33952 ft | 426 kts | 328° |
| 2026-05-08 12:07 | 47.48703 | 5.18280 | 33357 ft | 423 kts | 328° |
| 2026-05-08 12:07 | 47.51262 | 5.16179 | 32806 ft | 418 kts | 328° |
| 2026-05-08 12:07 | 47.53792 | 5.14089 | 32252 ft | 414 kts | 328° |
| 2026-05-08 12:07 | 47.56298 | 5.12015 | 31734 ft | 411 kts | 328° |
| 2026-05-08 12:08 | 47.58745 | 5.09882 | 31246 ft | 405 kts | 322° |
| 2026-05-08 12:08 | 47.60936 | 5.07321 | 30775 ft | 399 kts | 317° |
| 2026-05-08 12:08 | 47.63039 | 5.04677 | 30318 ft | 394 kts | 317° |
| 2026-05-08 12:08 | 47.65120 | 5.02062 | 29824 ft | 390 kts | 317° |
| 2026-05-08 12:09 | 47.67169 | 4.99487 | 29386 ft | 384 kts | 317° |
| 2026-05-08 12:09 | 47.69196 | 4.96943 | 28950 ft | 378 kts | 317° |
| 2026-05-08 12:09 | 47.71185 | 4.94443 | 28548 ft | 372 kts | 316° |
| 2026-05-08 12:09 | 47.73149 | 4.91986 | 28136 ft | 369 kts | 317° |
| 2026-05-08 12:10 | 47.75114 | 4.89541 | 27731 ft | 367 kts | 317° |
| 2026-05-08 12:10 | 47.77063 | 4.87121 | 27331 ft | 365 kts | 317° |
| 2026-05-08 12:10 | 47.79007 | 4.84701 | 26949 ft | 364 kts | 316° |
| 2026-05-08 12:10 | 47.80924 | 4.82258 | 26552 ft | 362 kts | 316° |
| 2026-05-08 12:11 | 47.82824 | 4.79807 | 26168 ft | 361 kts | 315° |
| 2026-05-08 12:11 | 47.84718 | 4.77363 | 25788 ft | 360 kts | 315° |
| 2026-05-08 12:11 | 47.86608 | 4.74930 | 25415 ft | 359 kts | 315° |
| 2026-05-08 12:11 | 47.88494 | 4.72507 | 25098 ft | 357 kts | 315° |
| 2026-05-08 12:12 | 47.90379 | 4.70090 | 24847 ft | 357 kts | 316° |
| 2026-05-08 12:12 | 47.92241 | 4.67713 | 24615 ft | 357 kts | 316° |
| 2026-05-08 12:12 | 47.94129 | 4.65303 | 24389 ft | 357 kts | 316° |
| 2026-05-08 12:12 | 47.96008 | 4.62901 | 24151 ft | 355 kts | 316° |
| 2026-05-08 12:13 | 47.97880 | 4.60505 | 23912 ft | 354 kts | 316° |
| 2026-05-08 12:13 | 47.99747 | 4.58112 | 23675 ft | 353 kts | 316° |
| 2026-05-08 12:13 | 48.01610 | 4.55722 | 23416 ft | 353 kts | 316° |
| 2026-05-08 12:13 | 48.03468 | 4.53336 | 23144 ft | 352 kts | 316° |
| 2026-05-08 12:14 | 48.05319 | 4.50959 | 22856 ft | 350 kts | 316° |
| 2026-05-08 12:14 | 48.07162 | 4.48590 | 22583 ft | 349 kts | 316° |
| 2026-05-08 12:14 | 48.08996 | 4.46229 | 22312 ft | 347 kts | 316° |
| 2026-05-08 12:14 | 48.10818 | 4.43881 | 22041 ft | 346 kts | 316° |
| 2026-05-08 12:15 | 48.12637 | 4.41534 | 21780 ft | 345 kts | 316° |
| 2026-05-08 12:15 | 48.14449 | 4.39195 | 21591 ft | 343 kts | 316° |
| 2026-05-08 12:15 | 48.15649 | 4.37644 | 21505 ft | 344 kts | 316° |
| 2026-05-08 12:15 | 48.17455 | 4.35301 | 21372 ft | 343 kts | 316° |
| 2026-05-08 12:16 | 48.19257 | 4.32959 | 21243 ft | 343 kts | 316° |
| 2026-05-08 12:16 | 48.21057 | 4.30620 | 21091 ft | 342 kts | 316° |
| 2026-05-08 12:16 | 48.22851 | 4.28290 | 21049 ft | 341 kts | 316° |
| 2026-05-08 12:16 | 48.24649 | 4.25961 | 21064 ft | 341 kts | 316° |
| 2026-05-08 12:17 | 48.26395 | 4.23560 | 21055 ft | 339 kts | 309° |
| 2026-05-08 12:17 | 48.27907 | 4.20858 | 21058 ft | 338 kts | 306° |
| 2026-05-08 12:17 | 48.29402 | 4.18127 | 20880 ft | 338 kts | 306° |
| 2026-05-08 12:17 | 48.30890 | 4.15407 | 20632 ft | 336 kts | 306° |
| 2026-05-08 12:18 | 48.32374 | 4.12697 | 20411 ft | 335 kts | 306° |
| 2026-05-08 12:18 | 48.33856 | 4.09998 | 20190 ft | 334 kts | 306° |
| 2026-05-08 12:18 | 48.35336 | 4.07306 | 19948 ft | 334 kts | 306° |
| 2026-05-08 12:18 | 48.36810 | 4.04622 | 19629 ft | 332 kts | 307° |
| 2026-05-08 12:19 | 48.38277 | 4.01946 | 19320 ft | 331 kts | 307° |
| 2026-05-08 12:19 | 48.39737 | 3.99275 | 19019 ft | 330 kts | 306° |
| 2026-05-08 12:19 | 48.41190 | 3.96611 | 18719 ft | 329 kts | 306° |
| 2026-05-08 12:19 | 48.42638 | 3.93954 | 18419 ft | 328 kts | 306° |
| 2026-05-08 12:20 | 48.44079 | 3.91305 | 18092 ft | 326 kts | 306° |
| 2026-05-08 12:20 | 48.45513 | 3.88663 | 17793 ft | 325 kts | 306° |
| 2026-05-08 12:20 | 48.46942 | 3.86029 | 17494 ft | 324 kts | 307° |
| 2026-05-08 12:20 | 48.48367 | 3.83405 | 17186 ft | 323 kts | 307° |
| 2026-05-08 12:21 | 48.49766 | 3.80822 | 16911 ft | 322 kts | 307° |
| 2026-05-08 12:21 | 48.51191 | 3.78183 | 16616 ft | 320 kts | 307° |
| 2026-05-08 12:21 | 48.52596 | 3.75585 | 16329 ft | 319 kts | 307° |
| 2026-05-08 12:21 | 48.53981 | 3.72975 | 16041 ft | 317 kts | 302° |
| 2026-05-08 12:22 | 48.55183 | 3.70205 | 15886 ft | 315 kts | 300° |
| 2026-05-08 12:22 | 48.56361 | 3.67464 | 15720 ft | 315 kts | 301° |
| 2026-05-08 12:22 | 48.57568 | 3.64653 | 15556 ft | 314 kts | 301° |
| 2026-05-08 12:22 | 48.58740 | 3.61921 | 15392 ft | 314 kts | 301° |
| 2026-05-08 12:23 | 48.59937 | 3.59123 | 15235 ft | 313 kts | 300° |
| 2026-05-08 12:23 | 48.61121 | 3.56357 | 15062 ft | 313 kts | 301° |
| 2026-05-08 12:23 | 48.62308 | 3.53588 | 14879 ft | 313 kts | 301° |
| 2026-05-08 12:23 | 48.63472 | 3.50875 | 14685 ft | 312 kts | 301° |
| 2026-05-08 12:24 | 48.64650 | 3.48123 | 14497 ft | 311 kts | 301° |
| 2026-05-08 12:24 | 48.65827 | 3.45378 | 14298 ft | 311 kts | 301° |
| 2026-05-08 12:24 | 48.66999 | 3.42638 | 14114 ft | 310 kts | 301° |
| 2026-05-08 12:24 | 48.68167 | 3.39903 | 13925 ft | 309 kts | 301° |
| 2026-05-08 12:25 | 48.69331 | 3.37172 | 13719 ft | 308 kts | 300° |
| 2026-05-08 12:25 | 48.70490 | 3.34446 | 13538 ft | 308 kts | 301° |
| 2026-05-08 12:25 | 48.71648 | 3.31728 | 13341 ft | 307 kts | 301° |
| 2026-05-08 12:25 | 48.72802 | 3.29017 | 13167 ft | 306 kts | 301° |
| 2026-05-08 12:26 | 48.73952 | 3.26312 | 13046 ft | 305 kts | 301° |
| 2026-05-08 12:26 | 48.75098 | 3.23610 | 13065 ft | 305 kts | 300° |
| 2026-05-08 12:26 | 48.76241 | 3.20908 | 13068 ft | 305 kts | 300° |
| 2026-05-08 12:26 | 48.77387 | 3.18200 | 13068 ft | 305 kts | 300° |
| 2026-05-08 12:27 | 48.78534 | 3.15485 | 13072 ft | 305 kts | 300° |
| 2026-05-08 12:27 | 48.79675 | 3.12779 | 13073 ft | 305 kts | 300° |
| 2026-05-08 12:27 | 48.80816 | 3.10063 | 13073 ft | 305 kts | 300° |
| 2026-05-08 12:27 | 48.81956 | 3.07348 | 13073 ft | 305 kts | 300° |
| 2026-05-08 12:28 | 48.83099 | 3.04634 | 13077 ft | 305 kts | 300° |
| 2026-05-08 12:28 | 48.84252 | 3.01942 | 13072 ft | 304 kts | 303° |
| 2026-05-08 12:28 | 48.85618 | 2.99477 | 13074 ft | 306 kts | 310° |
| 2026-05-08 12:28 | 48.87058 | 2.97098 | 13068 ft | 306 kts | 310° |
| 2026-05-08 12:29 | 48.88493 | 2.94723 | 13071 ft | 306 kts | 310° |
| 2026-05-08 12:29 | 48.89933 | 2.92334 | 13070 ft | 306 kts | 310° |
| 2026-05-08 12:29 | 48.91349 | 2.89981 | 13070 ft | 306 kts | 310° |
| 2026-05-08 12:29 | 48.92608 | 2.87352 | 13070 ft | 303 kts | 295° |
| 2026-05-08 12:30 | 48.93335 | 2.84402 | 13069 ft | 297 kts | 280° |
| 2026-05-08 12:30 | 48.93528 | 2.81305 | 13073 ft | 294 kts | 265° |
| 2026-05-08 12:30 | 48.93370 | 2.78213 | 13080 ft | 293 kts | 264° |
| 2026-05-08 12:30 | 48.93204 | 2.75122 | 13082 ft | 293 kts | 264° |
| 2026-05-08 12:31 | 48.93042 | 2.72029 | 13081 ft | 293 kts | 264° |
| 2026-05-08 12:31 | 48.92879 | 2.68944 | 13082 ft | 293 kts | 264° |
| 2026-05-08 12:31 | 48.92715 | 2.65845 | 13083 ft | 293 kts | 264° |
| 2026-05-08 12:31 | 48.92552 | 2.62759 | 13094 ft | 294 kts | 264° |
| 2026-05-08 12:32 | 48.92387 | 2.59663 | 13083 ft | 293 kts | 264° |
| 2026-05-08 12:32 | 48.92221 | 2.56583 | 13084 ft | 293 kts | 264° |
| 2026-05-08 12:32 | 48.92053 | 2.53511 | 12793 ft | 291 kts | 264° |
| 2026-05-08 12:32 | 48.91884 | 2.50457 | 12433 ft | 289 kts | 264° |
| 2026-05-08 12:33 | 48.91714 | 2.47412 | 12081 ft | 288 kts | 264° |
| 2026-05-08 12:33 | 48.91547 | 2.44404 | 11607 ft | 283 kts | 264° |
| 2026-05-08 12:33 | 48.91383 | 2.41427 | 10977 ft | 282 kts | 264° |
| 2026-05-08 12:33 | 48.91219 | 2.38466 | 10367 ft | 279 kts | 264° |
| 2026-05-08 12:34 | 48.91056 | 2.35537 | 9729 ft | 278 kts | 265° |
| 2026-05-08 12:34 | 48.90895 | 2.32628 | 9063 ft | 276 kts | 264° |
| 2026-05-08 12:34 | 48.90733 | 2.29730 | 8400 ft | 273 kts | 265° |
| 2026-05-08 12:34 | 48.90570 | 2.26868 | 7733 ft | 272 kts | 265° |
| 2026-05-08 12:35 | 48.90406 | 2.24005 | 7073 ft | 270 kts | 265° |
| 2026-05-08 12:35 | 48.90241 | 2.21172 | 6430 ft | 269 kts | 265° |
| 2026-05-08 12:35 | 48.90076 | 2.18345 | 5950 ft | 265 kts | 265° |
| 2026-05-08 12:35 | 48.89915 | 2.15609 | 5769 ft | 255 kts | 265° |
| 2026-05-08 12:36 | 48.89760 | 2.12981 | 5607 ft | 245 kts | 265° |
| 2026-05-08 12:36 | 48.89627 | 2.10458 | 5353 ft | 241 kts | 266° |
| 2026-05-08 12:36 | 48.89512 | 2.07924 | 5062 ft | 240 kts | 266° |
| 2026-05-08 12:36 | 48.89402 | 2.05358 | 4965 ft | 242 kts | 266° |
| 2026-05-08 12:37 | 48.89291 | 2.02767 | 4986 ft | 250 kts | 266° |
| 2026-05-08 12:37 | 48.89177 | 2.00109 | 4985 ft | 254 kts | 266° |
| 2026-05-08 12:37 | 48.89277 | 1.97444 | 4983 ft | 252 kts | 285° |
| 2026-05-08 12:37 | 48.90103 | 1.95168 | 4980 ft | 243 kts | 318° |
| 2026-05-08 12:38 | 48.91458 | 1.93973 | 4980 ft | 223 kts | 349° |
| 2026-05-08 12:38 | 48.92982 | 1.94111 | 4981 ft | 222 kts | 25° |
| 2026-05-08 12:38 | 48.94195 | 1.95522 | 4984 ft | 224 kts | 54° |
| 2026-05-08 12:38 | 48.95032 | 1.97549 | 4983 ft | 227 kts | 64° |
| 2026-05-08 12:39 | 48.95556 | 1.99744 | 4983 ft | 219 kts | 76° |
| 2026-05-08 12:39 | 48.95976 | 2.01930 | 4983 ft | 209 kts | 73° |
| 2026-05-08 12:39 | 48.96284 | 2.04025 | 4972 ft | 197 kts | 82° |
| 2026-05-08 12:39 | 48.96444 | 2.06035 | 4981 ft | 187 kts | 84° |
| 2026-05-08 12:40 | 48.96567 | 2.07998 | 4977 ft | 187 kts | 85° |
| 2026-05-08 12:40 | 48.96683 | 2.09967 | 4980 ft | 188 kts | 85° |
| 2026-05-08 12:40 | 48.96799 | 2.11950 | 4983 ft | 187 kts | 85° |
| 2026-05-08 12:40 | 48.96913 | 2.13919 | 4984 ft | 187 kts | 84° |
| 2026-05-08 12:41 | 48.97024 | 2.15862 | 4987 ft | 186 kts | 85° |
| 2026-05-08 12:41 | 48.97137 | 2.17827 | 4986 ft | 185 kts | 85° |
| 2026-05-08 12:41 | 48.97245 | 2.19720 | 4965 ft | 178 kts | 85° |
| 2026-05-08 12:41 | 48.97357 | 2.21674 | 4820 ft | 189 kts | 85° |
| 2026-05-08 12:42 | 48.97470 | 2.23669 | 4585 ft | 190 kts | 85° |
| 2026-05-08 12:42 | 48.97585 | 2.25685 | 4341 ft | 192 kts | 85° |
| 2026-05-08 12:42 | 48.97700 | 2.27726 | 4075 ft | 194 kts | 85° |
| 2026-05-08 12:42 | 48.97814 | 2.29745 | 3830 ft | 189 kts | 85° |
| 2026-05-08 12:43 | 48.97924 | 2.31718 | 3564 ft | 184 kts | 85° |
| 2026-05-08 12:43 | 48.98031 | 2.33629 | 3322 ft | 178 kts | 85° |
| 2026-05-08 12:43 | 48.98135 | 2.35491 | 3079 ft | 175 kts | 85° |
| 2026-05-08 12:43 | 48.98236 | 2.37292 | 2847 ft | 166 kts | 85° |
| 2026-05-08 12:44 | 48.98331 | 2.39013 | 2629 ft | 162 kts | 85° |
| 2026-05-08 12:44 | 48.98425 | 2.40706 | 2422 ft | 159 kts | 84° |
| 2026-05-08 12:44 | 48.98517 | 2.42376 | 2204 ft | 159 kts | 84° |
| 2026-05-08 12:44 | 48.98609 | 2.44049 | 1991 ft | 158 kts | 85° |
| 2026-05-08 12:45 | 48.98701 | 2.45722 | 1785 ft | 158 kts | 84° |
| 2026-05-08 12:45 | 48.98791 | 2.47371 | 1579 ft | 152 kts | 85° |
| 2026-05-08 12:45 | 48.98876 | 2.48920 | 1377 ft | 143 kts | 85° |
| 2026-05-08 12:45 | 48.98958 | 2.50418 | 1176 ft | 143 kts | 85° |
| 2026-05-08 12:46 | 48.99040 | 2.51926 | 983 ft | 143 kts | 85° |
| 2026-05-08 12:46 | 48.99122 | 2.53433 | 787 ft | 144 kts | 84° |
| 2026-05-08 12:46 | 48.99212 | 2.54934 | 622 ft | 144 kts | 83° |
| 2026-05-08 12:46 | 48.99288 | 2.56447 | 435 ft | 141 kts | 84° |
| 2026-05-08 12:47 | 48.99367 | 2.57875 | 352 ft | 119 kts | 84° |
| 2026-05-08 12:47 | 48.99416 | 2.58879 | 357 ft | 65 kts | 84° |
| 2026-05-08 12:47 | 48.99499 | 2.59365 | 363 ft | 37 kts | 67° |
| 2026-05-08 12:47 | 48.99565 | 2.59582 | 357 ft | 13 kts | 63° |
| 2026-05-08 12:48 | 48.99608 | 2.59672 | 359 ft | 6 kts | 36° |
| 2026-05-08 12:48 | 48.99637 | 2.59690 | 359 ft | 3 kts | 6° |
| 2026-05-08 12:48 | 48.99647 | 2.59690 | 360 ft | 3 kts | 356° |
| 2026-05-08 12:48 | 48.99683 | 2.59687 | 354 ft | 0 kts | 356° |
| 2026-05-08 12:49 | 48.99743 | 2.59682 | 354 ft | 13 kts | 357° |
| 2026-05-08 12:49 | 48.99837 | 2.59670 | 354 ft | 9 kts | 355° |
| 2026-05-08 12:50 | 48.99887 | 2.59664 | 354 ft | 6 kts | 355° |
| 2026-05-08 12:50 | 48.99911 | 2.59661 | 362 ft | 2 kts | 355° |
| 2026-05-08 12:50 | 48.99917 | 2.59660 | 363 ft | 0 kts | 355° |
| 2026-05-08 12:51 | 48.99918 | 2.59660 | 363 ft | 1 kts | 355° |
| 2026-05-08 12:51 | 48.99940 | 2.59657 | 357 ft | 0 kts | 355° |
| 2026-05-08 12:52 | 48.99977 | 2.59652 | 354 ft | 5 kts | 355° |
| 2026-05-08 12:52 | 49.00031 | 2.59645 | 362 ft | 2 kts | 355° |
| 2026-05-08 12:52 | 49.00046 | 2.59644 | 359 ft | 4 kts | 355° |
| 2026-05-08 12:53 | 49.00082 | 2.59639 | 354 ft | 4 kts | 355° |
| 2026-05-08 12:53 | 49.00108 | 2.59636 | 354 ft | 3 kts | 355° |
| 2026-05-08 12:53 | 49.00127 | 2.59633 | 354 ft | 2 kts | 355° |
| 2026-05-08 12:53 | 49.00141 | 2.59632 | 354 ft | 2 kts | 355° |
| 2026-05-08 12:54 | 49.00183 | 2.59627 | 354 ft | 8 kts | 355° |
| 2026-05-08 12:54 | 49.00236 | 2.59620 | 354 ft | 7 kts | 355° |
| 2026-05-08 12:54 | 49.00280 | 2.59615 | 360 ft | 6 kts | 355° |
| 2026-05-08 12:54 | 49.00339 | 2.59609 | 354 ft | 12 kts | 356° |
| 2026-05-08 12:55 | 49.00429 | 2.59598 | 359 ft | 14 kts | 353° |
| 2026-05-08 12:55 | 49.00528 | 2.59586 | 354 ft | 15 kts | 355° |
| 2026-05-08 12:55 | 49.00641 | 2.59569 | 354 ft | 17 kts | 354° |
| 2026-05-08 12:55 | 49.00766 | 2.59553 | 361 ft | 16 kts | 355° |
| 2026-05-08 12:56 | 49.00837 | 2.59545 | 354 ft | 9 kts | 355° |
| 2026-05-08 12:56 | 49.00896 | 2.59538 | 361 ft | 8 kts | 355° |
| 2026-05-08 12:56 | 49.00945 | 2.59532 | 354 ft | 7 kts | 356° |
| 2026-05-08 12:56 | 49.00984 | 2.59515 | 361 ft | 5 kts | 326° |
| 2026-05-08 12:57 | 49.00996 | 2.59471 | 359 ft | 4 kts | 280° |
| 2026-05-08 12:57 | 49.00997 | 2.59382 | 361 ft | 10 kts | 265° |
| 2026-05-08 12:57 | 49.00994 | 2.59278 | 354 ft | 9 kts | 267° |
| 2026-05-08 12:57 | 49.00988 | 2.59184 | 354 ft | 8 kts | 262° |
| 2026-05-08 12:58 | 49.00977 | 2.59100 | 358 ft | 8 kts | 258° |
| 2026-05-08 12:58 | 49.00967 | 2.59026 | 363 ft | 7 kts | 257° |
| 2026-05-08 12:58 | 49.00957 | 2.58961 | 357 ft | 6 kts | 257° |
| 2026-05-08 12:58 | 49.00950 | 2.58902 | 361 ft | 7 kts | 262° |
| 2026-05-08 12:59 | 49.00941 | 2.58739 | 354 ft | 19 kts | 265° |
| 2026-05-08 12:59 | 49.00931 | 2.58546 | 356 ft | 18 kts | 265° |
| 2026-05-08 12:59 | 49.00921 | 2.58369 | 358 ft | 16 kts | 265° |
| 2026-05-08 12:59 | 49.00913 | 2.58209 | 358 ft | 14 kts | 266° |
| 2026-05-08 13:00 | 49.00909 | 2.58109 | 359 ft | 14 kts | 266° |
| 2026-05-08 13:00 | 49.00897 | 2.57932 | 354 ft | 12 kts | 262° |
| 2026-05-08 13:00 | 49.00889 | 2.57814 | 354 ft | 11 kts | 265° |
| 2026-05-08 13:00 | 49.00883 | 2.57719 | 354 ft | 17 kts | 265° |
| 2026-05-08 13:01 | 49.00875 | 2.57501 | 360 ft | 15 kts | 265° |
| 2026-05-08 13:01 | 49.00868 | 2.57353 | 354 ft | 13 kts | 266° |
| 2026-05-08 13:01 | 49.00844 | 2.57229 | 364 ft | 12 kts | 225° |
| 2026-05-08 13:01 | 49.00774 | 2.57226 | 354 ft | 10 kts | 173° |
| 2026-05-08 13:02 | 49.00731 | 2.57229 | 360 ft | 9 kts | 184° |
| 2026-05-08 13:02 | 49.00688 | 2.57182 | 359 ft | 8 kts | 238° |
| 2026-05-08 13:02 | 49.00674 | 2.57111 | 358 ft | 7 kts | 257° |
| 2026-05-08 13:02 | 49.00661 | 2.57030 | 361 ft | 8 kts | 259° |
| 2026-05-08 13:03 | 49.00654 | 2.56946 | 354 ft | 7 kts | 264° |
| 2026-05-08 13:03 | 49.00649 | 2.56872 | 361 ft | 7 kts | 265° |
| 2026-05-08 13:03 | 49.00645 | 2.56806 | 354 ft | 6 kts | 265° |
| 2026-05-08 13:03 | 49.00642 | 2.56749 | 354 ft | 7 kts | 265° |
| 2026-05-08 13:04 | 49.00635 | 2.56608 | 361 ft | 13 kts | 266° |
| 2026-05-08 13:04 | 49.00628 | 2.56480 | 354 ft | 10 kts | 265° |
| 2026-05-08 13:04 | 49.00611 | 2.56426 | 358 ft | 4 kts | 203° |
| 2026-05-08 13:04 | 49.00587 | 2.56423 | 354 ft | 3 kts | 179° |
| 2026-05-08 13:05 | 49.00568 | 2.56424 | 358 ft | 3 kts | 176° |
| 2026-05-08 13:05 | 49.00549 | 2.56415 | 357 ft | 4 kts | 210° |
| 2026-05-08 13:05 | 49.00533 | 2.56390 | 364 ft | 0 kts | 226° |
| 2026-05-08 13:05 | 49.00532 | 2.56390 | 364 ft | 0 kts | 226° |